sensor_id;sensor_type;location;lat;lon;timestamp;P1;durP1;ratioP1;P2;durP2;ratioP2
73898;SDS011;62234;50.892;12.724;2023-02-23T00:02:10;10.85;;;5.57;;
73898;SDS011;62234;50.892;12.724;2023-02-23T00:04:36;12.05;;;5.97;;
73898;SDS011;62234;50.892;12.724;2023-02-23T00:07:03;10.73;;;6.03;;
73898;SDS011;62234;50.892;12.724;2023-02-23T00:09:30;8.15;;;5.40;;
73898;SDS011;62234;50.892;12.724;2023-02-23T00:11:59;11.90;;;6.10;;
73898;SDS011;62234;50.892;12.724;2023-02-23T00:14:32;11.90;;;6.00;;
73898;SDS011;62234;50.892;12.724;2023-02-23T00:16:58;11.23;;;6.13;;
73898;SDS011;62234;50.892;12.724;2023-02-23T00:19:25;11.52;;;6.35;;
73898;SDS011;62234;50.892;12.724;2023-02-23T00:21:51;10.73;;;5.35;;
73898;SDS011;62234;50.892;12.724;2023-02-23T00:24:18;10.23;;;6.07;;
73898;SDS011;62234;50.892;12.724;2023-02-23T00:26:44;10.57;;;5.72;;
73898;SDS011;62234;50.892;12.724;2023-02-23T00:29:15;9.23;;;5.80;;
73898;SDS011;62234;50.892;12.724;2023-02-23T00:31:42;9.27;;;5.55;;
73898;SDS011;62234;50.892;12.724;2023-02-23T00:34:09;9.68;;;5.80;;
73898;SDS011;62234;50.892;12.724;2023-02-23T00:36:35;9.93;;;5.65;;
73898;SDS011;62234;50.892;12.724;2023-02-23T00:39:03;10.70;;;5.35;;
73898;SDS011;62234;50.892;12.724;2023-02-23T00:41:43;9.35;;;4.93;;
73898;SDS011;62234;50.892;12.724;2023-02-23T00:44:09;10.70;;;5.63;;
73898;SDS011;62234;50.892;12.724;2023-02-23T00:46:35;10.90;;;5.40;;
73898;SDS011;62234;50.892;12.724;2023-02-23T00:49:01;10.50;;;5.53;;
73898;SDS011;62234;50.892;12.724;2023-02-23T00:51:29;12.15;;;6.00;;
73898;SDS011;62234;50.892;12.724;2023-02-23T00:53:55;10.52;;;5.85;;
73898;SDS011;62234;50.892;12.724;2023-02-23T00:56:21;11.80;;;5.38;;
73898;SDS011;62234;50.892;12.724;2023-02-23T00:58:47;10.45;;;5.43;;
73898;SDS011;62234;50.892;12.724;2023-02-23T01:01:13;9.65;;;5.47;;
73898;SDS011;62234;50.892;12.724;2023-02-23T01:03:40;8.30;;;5.30;;
73898;SDS011;62234;50.892;12.724;2023-02-23T01:06:07;8.65;;;5.68;;
73898;SDS011;62234;50.892;12.724;2023-02-23T01:08:34;12.90;;;5.88;;
73898;SDS011;62234;50.892;12.724;2023-02-23T01:11:10;8.40;;;5.25;;
73898;SDS011;62234;50.892;12.724;2023-02-23T01:13:36;9.30;;;5.65;;
73898;SDS011;62234;50.892;12.724;2023-02-23T01:16:06;9.10;;;5.72;;
73898;SDS011;62234;50.892;12.724;2023-02-23T01:18:33;10.25;;;6.38;;
73898;SDS011;62234;50.892;12.724;2023-02-23T01:20:59;9.15;;;5.78;;
73898;SDS011;62234;50.892;12.724;2023-02-23T01:23:25;9.90;;;5.68;;
73898;SDS011;62234;50.892;12.724;2023-02-23T01:25:51;11.00;;;5.90;;
73898;SDS011;62234;50.892;12.724;2023-02-23T01:28:17;9.48;;;5.78;;
73898;SDS011;62234;50.892;12.724;2023-02-23T01:30:43;13.15;;;6.32;;
73898;SDS011;62234;50.892;12.724;2023-02-23T01:33:09;10.77;;;6.38;;
73898;SDS011;62234;50.892;12.724;2023-02-23T01:35:36;9.48;;;5.55;;
73898;SDS011;62234;50.892;12.724;2023-02-23T01:38:02;9.60;;;5.28;;
73898;SDS011;62234;50.892;12.724;2023-02-23T01:40:28;10.27;;;5.68;;
73898;SDS011;62234;50.892;12.724;2023-02-23T01:42:56;10.35;;;5.82;;
73898;SDS011;62234;50.892;12.724;2023-02-23T01:45:27;10.85;;;5.47;;
73898;SDS011;62234;50.892;12.724;2023-02-23T01:48:02;9.57;;;5.40;;
73898;SDS011;62234;50.892;12.724;2023-02-23T01:50:31;11.23;;;6.13;;
73898;SDS011;62234;50.892;12.724;2023-02-23T01:52:57;10.40;;;5.75;;
73898;SDS011;62234;50.892;12.724;2023-02-23T01:55:25;12.80;;;6.32;;
73898;SDS011;62234;50.892;12.724;2023-02-23T01:57:54;10.18;;;6.07;;
73898;SDS011;62234;50.892;12.724;2023-02-23T02:00:21;11.98;;;6.03;;
73898;SDS011;62234;50.892;12.724;2023-02-23T02:02:50;10.32;;;6.43;;
73898;SDS011;62234;50.892;12.724;2023-02-23T02:05:16;9.02;;;5.32;;
73898;SDS011;62234;50.892;12.724;2023-02-23T02:07:44;10.20;;;5.63;;
73898;SDS011;62234;50.892;12.724;2023-02-23T02:10:11;9.75;;;5.80;;
73898;SDS011;62234;50.892;12.724;2023-02-23T02:12:41;9.70;;;5.25;;
73898;SDS011;62234;50.892;12.724;2023-02-23T02:15:09;10.57;;;5.82;;
73898;SDS011;62234;50.892;12.724;2023-02-23T02:25:46;9.85;;;5.65;;
73898;SDS011;62234;50.892;12.724;2023-02-23T02:28:36;10.80;;;5.70;;
73898;SDS011;62234;50.892;12.724;2023-02-23T02:31:16;10.98;;;5.60;;
73898;SDS011;62234;50.892;12.724;2023-02-23T02:44:16;14.45;;;6.57;;
73898;SDS011;62234;50.892;12.724;2023-02-23T02:46:46;10.10;;;6.35;;
73898;SDS011;62234;50.892;12.724;2023-02-23T02:51:43;13.85;;;7.05;;
73898;SDS011;62234;50.892;12.724;2023-02-23T02:54:14;13.68;;;6.68;;
73898;SDS011;62234;50.892;12.724;2023-02-23T02:56:45;9.80;;;6.75;;
73898;SDS011;62234;50.892;12.724;2023-02-23T02:59:12;11.80;;;6.70;;
73898;SDS011;62234;50.892;12.724;2023-02-23T03:01:58;10.15;;;5.93;;
73898;SDS011;62234;50.892;12.724;2023-02-23T03:04:42;12.02;;;6.85;;
73898;SDS011;62234;50.892;12.724;2023-02-23T03:07:33;11.93;;;6.82;;
73898;SDS011;62234;50.892;12.724;2023-02-23T03:13:08;10.25;;;6.55;;
73898;SDS011;62234;50.892;12.724;2023-02-23T03:21:55;12.93;;;6.93;;
73898;SDS011;62234;50.892;12.724;2023-02-23T03:24:44;12.60;;;8.00;;
73898;SDS011;62234;50.892;12.724;2023-02-23T03:27:40;13.18;;;7.20;;
73898;SDS011;62234;50.892;12.724;2023-02-23T03:30:29;12.75;;;6.53;;
73898;SDS011;62234;50.892;12.724;2023-02-23T03:33:21;13.55;;;6.80;;
73898;SDS011;62234;50.892;12.724;2023-02-23T03:36:09;11.18;;;6.65;;
73898;SDS011;62234;50.892;12.724;2023-02-23T03:39:42;11.02;;;6.63;;
73898;SDS011;62234;50.892;12.724;2023-02-23T03:42:01;11.77;;;7.00;;
73898;SDS011;62234;50.892;12.724;2023-02-23T03:44:46;12.65;;;6.25;;
73898;SDS011;62234;50.892;12.724;2023-02-23T03:47:33;13.73;;;7.35;;
73898;SDS011;62234;50.892;12.724;2023-02-23T03:50:20;12.82;;;7.10;;
73898;SDS011;62234;50.892;12.724;2023-02-23T03:53:07;12.70;;;7.28;;
73898;SDS011;62234;50.892;12.724;2023-02-23T03:55:54;13.93;;;7.22;;
73898;SDS011;62234;50.892;12.724;2023-02-23T03:58:42;12.85;;;6.93;;
73898;SDS011;62234;50.892;12.724;2023-02-23T04:01:30;11.68;;;7.07;;
73898;SDS011;62234;50.892;12.724;2023-02-23T04:04:15;11.35;;;6.10;;
73898;SDS011;62234;50.892;12.724;2023-02-23T04:07:00;10.18;;;6.18;;
73898;SDS011;62234;50.892;12.724;2023-02-23T04:09:45;12.57;;;6.72;;
73898;SDS011;62234;50.892;12.724;2023-02-23T04:12:44;18.02;;;8.60;;
73898;SDS011;62234;50.892;12.724;2023-02-23T04:15:31;15.65;;;8.50;;
73898;SDS011;62234;50.892;12.724;2023-02-23T04:17:58;15.55;;;8.20;;
73898;SDS011;62234;50.892;12.724;2023-02-23T04:20:25;18.55;;;10.07;;
73898;SDS011;62234;50.892;12.724;2023-02-23T04:22:51;18.20;;;9.70;;
73898;SDS011;62234;50.892;12.724;2023-02-23T04:25:17;22.48;;;9.10;;
73898;SDS011;62234;50.892;12.724;2023-02-23T04:27:46;20.55;;;9.23;;
73898;SDS011;62234;50.892;12.724;2023-02-23T04:30:12;17.02;;;8.18;;
73898;SDS011;62234;50.892;12.724;2023-02-23T04:32:38;15.25;;;7.78;;
73898;SDS011;62234;50.892;12.724;2023-02-23T04:35:04;12.15;;;6.82;;
73898;SDS011;62234;50.892;12.724;2023-02-23T04:37:30;13.38;;;7.50;;
73898;SDS011;62234;50.892;12.724;2023-02-23T04:39:56;14.82;;;7.45;;
73898;SDS011;62234;50.892;12.724;2023-02-23T04:42:22;13.30;;;6.97;;
73898;SDS011;62234;50.892;12.724;2023-02-23T04:44:48;10.98;;;6.97;;
73898;SDS011;62234;50.892;12.724;2023-02-23T04:47:14;13.68;;;7.68;;
73898;SDS011;62234;50.892;12.724;2023-02-23T04:49:41;15.77;;;7.63;;
73898;SDS011;62234;50.892;12.724;2023-02-23T04:52:07;15.98;;;8.18;;
73898;SDS011;62234;50.892;12.724;2023-02-23T04:54:34;15.95;;;8.00;;
73898;SDS011;62234;50.892;12.724;2023-02-23T04:57:01;15.70;;;7.43;;
73898;SDS011;62234;50.892;12.724;2023-02-23T04:59:27;14.20;;;8.05;;
73898;SDS011;62234;50.892;12.724;2023-02-23T05:01:53;14.00;;;7.43;;
73898;SDS011;62234;50.892;12.724;2023-02-23T05:04:19;13.27;;;7.95;;
73898;SDS011;62234;50.892;12.724;2023-02-23T05:06:45;11.10;;;6.75;;
73898;SDS011;62234;50.892;12.724;2023-02-23T05:09:12;17.50;;;7.90;;
73898;SDS011;62234;50.892;12.724;2023-02-23T05:11:38;14.48;;;7.20;;
73898;SDS011;62234;50.892;12.724;2023-02-23T05:14:04;16.25;;;7.93;;
73898;SDS011;62234;50.892;12.724;2023-02-23T05:16:30;15.27;;;7.80;;
73898;SDS011;62234;50.892;12.724;2023-02-23T05:18:56;11.43;;;6.93;;
73898;SDS011;62234;50.892;12.724;2023-02-23T05:21:22;13.60;;;7.88;;
73898;SDS011;62234;50.892;12.724;2023-02-23T05:23:48;14.35;;;8.13;;
73898;SDS011;62234;50.892;12.724;2023-02-23T05:26:14;12.23;;;7.45;;
73898;SDS011;62234;50.892;12.724;2023-02-23T05:28:41;10.80;;;6.82;;
73898;SDS011;62234;50.892;12.724;2023-02-23T05:31:07;14.13;;;6.78;;
73898;SDS011;62234;50.892;12.724;2023-02-23T05:33:33;13.55;;;7.05;;
73898;SDS011;62234;50.892;12.724;2023-02-23T05:36:06;13.18;;;7.75;;
73898;SDS011;62234;50.892;12.724;2023-02-23T05:38:32;11.95;;;6.68;;
73898;SDS011;62234;50.892;12.724;2023-02-23T05:40:58;11.88;;;6.75;;
73898;SDS011;62234;50.892;12.724;2023-02-23T05:43:24;10.05;;;6.72;;
73898;SDS011;62234;50.892;12.724;2023-02-23T05:45:50;13.82;;;6.68;;
73898;SDS011;62234;50.892;12.724;2023-02-23T05:48:16;11.20;;;6.20;;
73898;SDS011;62234;50.892;12.724;2023-02-23T05:50:42;10.60;;;5.80;;
73898;SDS011;62234;50.892;12.724;2023-02-23T05:53:09;11.30;;;6.80;;
73898;SDS011;62234;50.892;12.724;2023-02-23T05:55:35;9.00;;;5.65;;
73898;SDS011;62234;50.892;12.724;2023-02-23T05:58:01;8.75;;;5.55;;
73898;SDS011;62234;50.892;12.724;2023-02-23T06:00:27;9.55;;;6.25;;
73898;SDS011;62234;50.892;12.724;2023-02-23T06:02:53;8.90;;;5.43;;
73898;SDS011;62234;50.892;12.724;2023-02-23T06:05:19;9.48;;;5.85;;
73898;SDS011;62234;50.892;12.724;2023-02-23T06:07:45;10.85;;;6.63;;
73898;SDS011;62234;50.892;12.724;2023-02-23T06:10:12;10.25;;;6.35;;
73898;SDS011;62234;50.892;12.724;2023-02-23T06:12:38;12.40;;;7.13;;
73898;SDS011;62234;50.892;12.724;2023-02-23T06:15:04;10.45;;;6.35;;
73898;SDS011;62234;50.892;12.724;2023-02-23T06:17:30;12.48;;;5.97;;
73898;SDS011;62234;50.892;12.724;2023-02-23T06:19:56;12.48;;;6.72;;
73898;SDS011;62234;50.892;12.724;2023-02-23T06:22:23;12.77;;;6.82;;
73898;SDS011;62234;50.892;12.724;2023-02-23T06:24:49;14.77;;;6.47;;
73898;SDS011;62234;50.892;12.724;2023-02-23T06:27:15;11.85;;;7.10;;
73898;SDS011;62234;50.892;12.724;2023-02-23T06:29:41;13.65;;;7.15;;
73898;SDS011;62234;50.892;12.724;2023-02-23T06:32:07;13.35;;;6.85;;
73898;SDS011;62234;50.892;12.724;2023-02-23T06:34:33;16.38;;;7.75;;
73898;SDS011;62234;50.892;12.724;2023-02-23T06:36:59;10.48;;;6.40;;
73898;SDS011;62234;50.892;12.724;2023-02-23T06:39:25;12.80;;;7.38;;
73898;SDS011;62234;50.892;12.724;2023-02-23T06:41:51;15.05;;;6.72;;
73898;SDS011;62234;50.892;12.724;2023-02-23T06:44:17;11.75;;;6.95;;
73898;SDS011;62234;50.892;12.724;2023-02-23T06:46:43;9.73;;;5.57;;
73898;SDS011;62234;50.892;12.724;2023-02-23T06:49:10;10.07;;;5.80;;
73898;SDS011;62234;50.892;12.724;2023-02-23T06:51:36;12.82;;;7.03;;
73898;SDS011;62234;50.892;12.724;2023-02-23T06:54:02;10.60;;;6.70;;
73898;SDS011;62234;50.892;12.724;2023-02-23T06:56:28;9.82;;;5.32;;
73898;SDS011;62234;50.892;12.724;2023-02-23T06:58:54;12.38;;;6.57;;
73898;SDS011;62234;50.892;12.724;2023-02-23T07:01:20;12.02;;;6.18;;
73898;SDS011;62234;50.892;12.724;2023-02-23T07:03:46;9.85;;;5.25;;
73898;SDS011;62234;50.892;12.724;2023-02-23T07:06:12;9.02;;;5.05;;
73898;SDS011;62234;50.892;12.724;2023-02-23T07:08:38;9.20;;;5.18;;
73898;SDS011;62234;50.892;12.724;2023-02-23T07:11:05;8.68;;;5.18;;
73898;SDS011;62234;50.892;12.724;2023-02-23T07:13:31;11.00;;;5.82;;
73898;SDS011;62234;50.892;12.724;2023-02-23T07:15:57;9.35;;;5.22;;
73898;SDS011;62234;50.892;12.724;2023-02-23T07:18:23;9.98;;;4.93;;
73898;SDS011;62234;50.892;12.724;2023-02-23T07:20:49;8.25;;;5.22;;
73898;SDS011;62234;50.892;12.724;2023-02-23T07:23:28;9.77;;;5.57;;
73898;SDS011;62234;50.892;12.724;2023-02-23T07:25:54;11.77;;;5.97;;
73898;SDS011;62234;50.892;12.724;2023-02-23T07:30:54;10.60;;;5.57;;
73898;SDS011;62234;50.892;12.724;2023-02-23T07:33:20;10.82;;;5.57;;
73898;SDS011;62234;50.892;12.724;2023-02-23T07:35:47;10.23;;;5.43;;
73898;SDS011;62234;50.892;12.724;2023-02-23T07:38:13;13.25;;;5.90;;
73898;SDS011;62234;50.892;12.724;2023-02-23T07:40:39;11.95;;;6.15;;
73898;SDS011;62234;50.892;12.724;2023-02-23T07:43:06;11.85;;;5.82;;
73898;SDS011;62234;50.892;12.724;2023-02-23T07:45:32;15.52;;;6.15;;
73898;SDS011;62234;50.892;12.724;2023-02-23T07:47:58;9.32;;;5.80;;
73898;SDS011;62234;50.892;12.724;2023-02-23T07:58:53;13.85;;;6.05;;
73898;SDS011;62234;50.892;12.724;2023-02-23T08:01:29;10.57;;;6.03;;
73898;SDS011;62234;50.892;12.724;2023-02-23T08:03:55;9.77;;;5.80;;
73898;SDS011;62234;50.892;12.724;2023-02-23T08:06:21;12.05;;;6.28;;
73898;SDS011;62234;50.892;12.724;2023-02-23T08:09:09;11.18;;;5.80;;
73898;SDS011;62234;50.892;12.724;2023-02-23T08:11:36;11.38;;;6.05;;
73898;SDS011;62234;50.892;12.724;2023-02-23T08:14:02;11.00;;;5.88;;
73898;SDS011;62234;50.892;12.724;2023-02-23T08:16:29;8.30;;;5.43;;
73898;SDS011;62234;50.892;12.724;2023-02-23T08:18:55;10.10;;;6.00;;
73898;SDS011;62234;50.892;12.724;2023-02-23T08:21:25;9.52;;;5.65;;
73898;SDS011;62234;50.892;12.724;2023-02-23T08:23:53;11.18;;;5.35;;
73898;SDS011;62234;50.892;12.724;2023-02-23T08:26:19;8.55;;;5.60;;
73898;SDS011;62234;50.892;12.724;2023-02-23T08:28:45;8.63;;;5.28;;
73898;SDS011;62234;50.892;12.724;2023-02-23T08:31:12;9.00;;;5.05;;
73898;SDS011;62234;50.892;12.724;2023-02-23T08:33:38;8.80;;;5.47;;
73898;SDS011;62234;50.892;12.724;2023-02-23T08:36:07;9.43;;;5.47;;
73898;SDS011;62234;50.892;12.724;2023-02-23T08:38:33;9.80;;;5.88;;
73898;SDS011;62234;50.892;12.724;2023-02-23T08:41:00;12.13;;;5.65;;
73898;SDS011;62234;50.892;12.724;2023-02-23T08:43:27;10.05;;;5.95;;
73898;SDS011;62234;50.892;12.724;2023-02-23T08:45:53;8.10;;;4.65;;
73898;SDS011;62234;50.892;12.724;2023-02-23T08:51:08;8.40;;;5.22;;
73898;SDS011;62234;50.892;12.724;2023-02-23T08:53:34;9.75;;;6.03;;
73898;SDS011;62234;50.892;12.724;2023-02-23T08:56:01;10.70;;;5.53;;
73898;SDS011;62234;50.892;12.724;2023-02-23T08:58:28;9.55;;;5.78;;
73898;SDS011;62234;50.892;12.724;2023-02-23T09:00:59;11.05;;;6.20;;
73898;SDS011;62234;50.892;12.724;2023-02-23T09:03:25;11.00;;;5.53;;
73898;SDS011;62234;50.892;12.724;2023-02-23T09:05:52;10.20;;;6.07;;
73898;SDS011;62234;50.892;12.724;2023-02-23T09:08:18;8.65;;;5.80;;
73898;SDS011;62234;50.892;12.724;2023-02-23T09:10:44;9.60;;;5.72;;
73898;SDS011;62234;50.892;12.724;2023-02-23T09:13:11;11.98;;;6.00;;
73898;SDS011;62234;50.892;12.724;2023-02-23T09:15:37;8.70;;;5.47;;
73898;SDS011;62234;50.892;12.724;2023-02-23T09:18:04;10.73;;;6.30;;
73898;SDS011;62234;50.892;12.724;2023-02-23T09:20:31;9.63;;;5.88;;
73898;SDS011;62234;50.892;12.724;2023-02-23T09:22:57;11.98;;;6.57;;
73898;SDS011;62234;50.892;12.724;2023-02-23T09:25:23;9.80;;;6.10;;
73898;SDS011;62234;50.892;12.724;2023-02-23T09:27:53;11.30;;;6.20;;
73898;SDS011;62234;50.892;12.724;2023-02-23T09:30:21;10.55;;;6.18;;
73898;SDS011;62234;50.892;12.724;2023-02-23T09:32:47;10.25;;;6.07;;
73898;SDS011;62234;50.892;12.724;2023-02-23T09:35:14;9.38;;;5.88;;
73898;SDS011;62234;50.892;12.724;2023-02-23T09:37:42;13.55;;;6.53;;
73898;SDS011;62234;50.892;12.724;2023-02-23T09:40:13;11.38;;;6.70;;
73898;SDS011;62234;50.892;12.724;2023-02-23T09:42:44;12.88;;;6.18;;
73898;SDS011;62234;50.892;12.724;2023-02-23T09:45:18;9.05;;;5.80;;
73898;SDS011;62234;50.892;12.724;2023-02-23T09:50:15;9.68;;;6.20;;
73898;SDS011;62234;50.892;12.724;2023-02-23T09:52:43;9.95;;;5.80;;
73898;SDS011;62234;50.892;12.724;2023-02-23T09:55:10;11.43;;;6.60;;
73898;SDS011;62234;50.892;12.724;2023-02-23T09:57:38;15.73;;;6.65;;
73898;SDS011;62234;50.892;12.724;2023-02-23T10:00:38;10.13;;;6.55;;
73898;SDS011;62234;50.892;12.724;2023-02-23T10:05:47;11.38;;;6.65;;
73898;SDS011;62234;50.892;12.724;2023-02-23T10:10:44;11.18;;;6.20;;
73898;SDS011;62234;50.892;12.724;2023-02-23T10:13:20;13.00;;;7.30;;
73898;SDS011;62234;50.892;12.724;2023-02-23T10:15:55;14.07;;;7.53;;
73898;SDS011;62234;50.892;12.724;2023-02-23T10:23:36;10.88;;;6.80;;
73898;SDS011;62234;50.892;12.724;2023-02-23T10:26:03;11.45;;;6.63;;
73898;SDS011;62234;50.892;12.724;2023-02-23T10:28:33;11.90;;;6.60;;
73898;SDS011;62234;50.892;12.724;2023-02-23T10:30:59;13.63;;;7.90;;
73898;SDS011;62234;50.892;12.724;2023-02-23T10:33:34;15.10;;;7.40;;
73898;SDS011;62234;50.892;12.724;2023-02-23T10:36:08;13.48;;;7.22;;
73898;SDS011;62234;50.892;12.724;2023-02-23T10:38:35;14.55;;;7.55;;
73898;SDS011;62234;50.892;12.724;2023-02-23T10:41:01;14.25;;;7.75;;
73898;SDS011;62234;50.892;12.724;2023-02-23T10:43:28;14.45;;;7.22;;
73898;SDS011;62234;50.892;12.724;2023-02-23T10:45:54;11.35;;;7.00;;
73898;SDS011;62234;50.892;12.724;2023-02-23T10:48:21;16.65;;;8.77;;
73898;SDS011;62234;50.892;12.724;2023-02-23T10:50:49;14.75;;;7.53;;
73898;SDS011;62234;50.892;12.724;2023-02-23T10:53:16;15.98;;;8.15;;
73898;SDS011;62234;50.892;12.724;2023-02-23T10:55:44;12.30;;;6.53;;
73898;SDS011;62234;50.892;12.724;2023-02-23T10:58:14;15.35;;;7.85;;
73898;SDS011;62234;50.892;12.724;2023-02-23T11:00:52;16.73;;;6.70;;
73898;SDS011;62234;50.892;12.724;2023-02-23T11:05:45;17.48;;;8.40;;
73898;SDS011;62234;50.892;12.724;2023-02-23T11:11:07;13.32;;;8.18;;
73898;SDS011;62234;50.892;12.724;2023-02-23T11:13:46;14.70;;;7.53;;
73898;SDS011;62234;50.892;12.724;2023-02-23T11:16:13;15.00;;;8.75;;
73898;SDS011;62234;50.892;12.724;2023-02-23T11:18:41;14.23;;;8.20;;
73898;SDS011;62234;50.892;12.724;2023-02-23T11:21:08;13.75;;;8.02;;
73898;SDS011;62234;50.892;12.724;2023-02-23T11:23:35;17.80;;;8.20;;
73898;SDS011;62234;50.892;12.724;2023-02-23T11:26:21;13.48;;;7.82;;
73898;SDS011;62234;50.892;12.724;2023-02-23T11:28:50;17.80;;;8.57;;
73898;SDS011;62234;50.892;12.724;2023-02-23T11:31:20;19.55;;;9.52;;
73898;SDS011;62234;50.892;12.724;2023-02-23T11:33:48;21.70;;;10.55;;
73898;SDS011;62234;50.892;12.724;2023-02-23T11:36:16;16.30;;;9.23;;
73898;SDS011;62234;50.892;12.724;2023-02-23T11:38:43;18.92;;;9.52;;
73898;SDS011;62234;50.892;12.724;2023-02-23T11:41:17;17.30;;;9.23;;
73898;SDS011;62234;50.892;12.724;2023-02-23T11:43:50;16.38;;;9.00;;
73898;SDS011;62234;50.892;12.724;2023-02-23T11:46:18;19.20;;;9.38;;
73898;SDS011;62234;50.892;12.724;2023-02-23T11:48:47;18.35;;;9.60;;
73898;SDS011;62234;50.892;12.724;2023-02-23T11:51:25;16.70;;;8.23;;
73898;SDS011;62234;50.892;12.724;2023-02-23T11:53:52;16.40;;;9.15;;
73898;SDS011;62234;50.892;12.724;2023-02-23T11:56:19;16.30;;;8.48;;
73898;SDS011;62234;50.892;12.724;2023-02-23T11:58:47;15.55;;;8.20;;
73898;SDS011;62234;50.892;12.724;2023-02-23T12:01:14;16.65;;;8.88;;
73898;SDS011;62234;50.892;12.724;2023-02-23T12:03:54;16.30;;;8.82;;
73898;SDS011;62234;50.892;12.724;2023-02-23T12:06:28;15.27;;;9.05;;
73898;SDS011;62234;50.892;12.724;2023-02-23T12:11:43;15.32;;;8.18;;
73898;SDS011;62234;50.892;12.724;2023-02-23T12:14:15;15.82;;;8.90;;
73898;SDS011;62234;50.892;12.724;2023-02-23T12:16:45;17.30;;;8.90;;
73898;SDS011;62234;50.892;12.724;2023-02-23T12:19:23;19.00;;;8.57;;
73898;SDS011;62234;50.892;12.724;2023-02-23T12:21:56;16.85;;;8.40;;
73898;SDS011;62234;50.892;12.724;2023-02-23T12:40:36;20.63;;;10.75;;
73898;SDS011;62234;50.892;12.724;2023-02-23T12:43:16;19.63;;;9.68;;
73898;SDS011;62234;50.892;12.724;2023-02-23T12:45:51;17.27;;;8.93;;
73898;SDS011;62234;50.892;12.724;2023-02-23T12:51:21;18.77;;;9.85;;
73898;SDS011;62234;50.892;12.724;2023-02-23T12:53:49;21.25;;;9.65;;
73898;SDS011;62234;50.892;12.724;2023-02-23T12:56:31;23.67;;;11.23;;
73898;SDS011;62234;50.892;12.724;2023-02-23T12:59:10;19.52;;;10.48;;
73898;SDS011;62234;50.892;12.724;2023-02-23T13:04:19;21.20;;;10.75;;
73898;SDS011;62234;50.892;12.724;2023-02-23T13:09:29;23.55;;;11.18;;
73898;SDS011;62234;50.892;12.724;2023-02-23T13:14:44;20.65;;;10.48;;
73898;SDS011;62234;50.892;12.724;2023-02-23T13:19:45;23.33;;;10.82;;
73898;SDS011;62234;50.892;12.724;2023-02-23T13:24:48;23.00;;;11.20;;
73898;SDS011;62234;50.892;12.724;2023-02-23T13:27:15;22.05;;;10.00;;
73898;SDS011;62234;50.892;12.724;2023-02-23T13:29:46;19.95;;;9.70;;
73898;SDS011;62234;50.892;12.724;2023-02-23T13:37:39;19.25;;;9.35;;
73898;SDS011;62234;50.892;12.724;2023-02-23T13:42:54;17.00;;;9.75;;
73898;SDS011;62234;50.892;12.724;2023-02-23T13:48:03;20.30;;;10.95;;
73898;SDS011;62234;50.892;12.724;2023-02-23T13:50:34;16.80;;;9.45;;
73898;SDS011;62234;50.892;12.724;2023-02-23T13:53:24;20.02;;;9.27;;
73898;SDS011;62234;50.892;12.724;2023-02-23T13:55:52;19.73;;;10.07;;
73898;SDS011;62234;50.892;12.724;2023-02-23T13:58:26;20.20;;;9.38;;
73898;SDS011;62234;50.892;12.724;2023-02-23T14:01:01;17.60;;;9.77;;
73898;SDS011;62234;50.892;12.724;2023-02-23T14:03:28;18.05;;;10.00;;
73898;SDS011;62234;50.892;12.724;2023-02-23T14:05:58;19.63;;;10.07;;
73898;SDS011;62234;50.892;12.724;2023-02-23T14:08:27;16.55;;;9.30;;
73898;SDS011;62234;50.892;12.724;2023-02-23T14:10:55;19.83;;;9.90;;
73898;SDS011;62234;50.892;12.724;2023-02-23T14:16:07;19.77;;;9.68;;
73898;SDS011;62234;50.892;12.724;2023-02-23T14:18:33;17.92;;;9.82;;
73898;SDS011;62234;50.892;12.724;2023-02-23T14:28:37;16.55;;;9.85;;
73898;SDS011;62234;50.892;12.724;2023-02-23T14:39:09;18.88;;;10.10;;
73898;SDS011;62234;50.892;12.724;2023-02-23T14:41:50;21.65;;;11.02;;
73898;SDS011;62234;50.892;12.724;2023-02-23T14:44:24;21.92;;;10.48;;
73898;SDS011;62234;50.892;12.724;2023-02-23T14:47:06;18.02;;;10.98;;
73898;SDS011;62234;50.892;12.724;2023-02-23T14:49:37;21.27;;;10.15;;
73898;SDS011;62234;50.892;12.724;2023-02-23T14:52:07;23.27;;;11.18;;
73898;SDS011;62234;50.892;12.724;2023-02-23T14:57:00;18.50;;;10.63;;
73898;SDS011;62234;50.892;12.724;2023-02-23T14:59:28;22.27;;;11.27;;
73898;SDS011;62234;50.892;12.724;2023-02-23T15:04:39;21.08;;;11.30;;
73898;SDS011;62234;50.892;12.724;2023-02-23T15:07:13;20.67;;;11.73;;
73898;SDS011;62234;50.892;12.724;2023-02-23T15:10:08;24.27;;;12.43;;
73898;SDS011;62234;50.892;12.724;2023-02-23T15:12:35;24.33;;;12.75;;
73898;SDS011;62234;50.892;12.724;2023-02-23T15:15:02;23.35;;;11.35;;
73898;SDS011;62234;50.892;12.724;2023-02-23T15:17:30;22.98;;;12.00;;
73898;SDS011;62234;50.892;12.724;2023-02-23T15:20:02;23.45;;;12.30;;
73898;SDS011;62234;50.892;12.724;2023-02-23T15:22:32;22.02;;;11.68;;
73898;SDS011;62234;50.892;12.724;2023-02-23T15:24:59;20.70;;;12.85;;
73898;SDS011;62234;50.892;12.724;2023-02-23T15:27:44;24.92;;;12.68;;
73898;SDS011;62234;50.892;12.724;2023-02-23T15:32:43;22.95;;;11.30;;
73898;SDS011;62234;50.892;12.724;2023-02-23T15:35:10;24.73;;;12.30;;
73898;SDS011;62234;50.892;12.724;2023-02-23T15:37:45;22.90;;;13.38;;
73898;SDS011;62234;50.892;12.724;2023-02-23T15:40:14;21.90;;;11.77;;
73898;SDS011;62234;50.892;12.724;2023-02-23T15:42:42;27.45;;;12.32;;
73898;SDS011;62234;50.892;12.724;2023-02-23T15:45:17;25.77;;;13.63;;
73898;SDS011;62234;50.892;12.724;2023-02-23T15:47:44;24.40;;;12.80;;
73898;SDS011;62234;50.892;12.724;2023-02-23T15:50:14;25.88;;;13.48;;
73898;SDS011;62234;50.892;12.724;2023-02-23T15:52:43;34.05;;;14.35;;
73898;SDS011;62234;50.892;12.724;2023-02-23T15:55:12;30.75;;;14.80;;
73898;SDS011;62234;50.892;12.724;2023-02-23T15:57:45;29.98;;;16.00;;
73898;SDS011;62234;50.892;12.724;2023-02-23T16:00:16;32.95;;;15.80;;
73898;SDS011;62234;50.892;12.724;2023-02-23T16:02:43;34.38;;;16.58;;
73898;SDS011;62234;50.892;12.724;2023-02-23T16:05:19;31.08;;;14.95;;
73898;SDS011;62234;50.892;12.724;2023-02-23T16:07:45;37.33;;;16.30;;
73898;SDS011;62234;50.892;12.724;2023-02-23T16:10:19;33.88;;;16.38;;
73898;SDS011;62234;50.892;12.724;2023-02-23T16:12:47;29.85;;;15.35;;
73898;SDS011;62234;50.892;12.724;2023-02-23T16:15:25;38.85;;;17.25;;
73898;SDS011;62234;50.892;12.724;2023-02-23T16:20:29;32.50;;;16.77;;
73898;SDS011;62234;50.892;12.724;2023-02-23T16:22:58;34.33;;;15.85;;
73898;SDS011;62234;50.892;12.724;2023-02-23T16:25:27;33.55;;;16.17;;
73898;SDS011;62234;50.892;12.724;2023-02-23T16:28:04;34.40;;;16.10;;
73898;SDS011;62234;50.892;12.724;2023-02-23T16:30:35;27.73;;;14.18;;
73898;SDS011;62234;50.892;12.724;2023-02-23T16:35:35;26.83;;;14.40;;
73898;SDS011;62234;50.892;12.724;2023-02-23T16:38:03;30.35;;;14.02;;
73898;SDS011;62234;50.892;12.724;2023-02-23T16:40:36;33.45;;;15.10;;
73898;SDS011;62234;50.892;12.724;2023-02-23T16:43:02;26.92;;;15.45;;
73898;SDS011;62234;50.892;12.724;2023-02-23T16:45:28;29.23;;;14.35;;
73898;SDS011;62234;50.892;12.724;2023-02-23T16:47:54;33.75;;;15.88;;
73898;SDS011;62234;50.892;12.724;2023-02-23T16:50:27;29.65;;;16.70;;
73898;SDS011;62234;50.892;12.724;2023-02-23T16:52:54;36.55;;;17.30;;
73898;SDS011;62234;50.892;12.724;2023-02-23T16:55:21;35.42;;;15.90;;
73898;SDS011;62234;50.892;12.724;2023-02-23T16:57:49;36.40;;;16.88;;